createdAt,value
2023-02-09T00:00:16.729Z,0.50
2023-02-09T00:02:44.788Z,0.50
2023-02-09T00:05:12.828Z,0.40
2023-02-09T00:07:40.859Z,0.30
2023-02-09T00:10:09.323Z,0.30
2023-02-09T00:12:58.701Z,0.30
2023-02-09T00:15:26.730Z,0.30
2023-02-09T00:17:54.931Z,0.20
2023-02-09T00:20:23.011Z,0.20
2023-02-09T00:22:51.095Z,0.20
2023-02-09T00:25:19.079Z,0.10
2023-02-09T00:27:48.569Z,0.10
2023-02-09T00:30:16.650Z,0.20
2023-02-09T00:32:44.720Z,0.20
2023-02-09T00:35:12.762Z,0.20
2023-02-09T00:37:42.022Z,0.20
2023-02-09T00:40:10.446Z,0.20
2023-02-09T00:42:38.712Z,0.20
2023-02-09T00:45:08.946Z,0.20
2023-02-09T00:47:37.068Z,0.20
2023-02-09T00:50:06.677Z,0.20
2023-02-09T00:52:34.813Z,0.10
2023-02-09T00:55:02.837Z,0.10
2023-02-09T00:57:30.999Z,0.00
2023-02-09T00:59:59.049Z,0.50
2023-02-09T01:02:28.511Z,0.00
2023-02-09T01:04:56.603Z,-0.10
2023-02-09T01:07:24.649Z,-0.10
2023-02-09T01:09:52.651Z,-0.10
2023-02-09T01:12:20.825Z,-0.10
2023-02-09T01:14:48.831Z,-0.10
2023-02-09T01:17:16.874Z,-0.10
2023-02-09T01:19:46.241Z,-0.20
2023-02-09T01:22:16.392Z,-0.20
2023-02-09T01:24:44.461Z,-0.20
2023-02-09T01:27:12.402Z,-0.20
2023-02-09T01:29:40.859Z,-0.20
2023-02-09T01:32:09.046Z,-0.20
2023-02-09T01:34:37.077Z,-0.30
2023-02-09T01:37:06.454Z,-0.30
2023-02-09T01:39:34.454Z,-0.30
2023-02-09T01:42:03.613Z,-0.30
2023-02-09T01:44:50.082Z,-0.30
2023-02-09T01:47:19.110Z,-0.30
2023-02-09T01:49:49.100Z,-0.40
2023-02-09T01:52:19.324Z,-0.40
2023-02-09T01:54:50.004Z,-0.30
2023-02-09T01:57:21.767Z,-0.40
2023-02-09T01:59:55.008Z,-0.40
2023-02-09T02:02:23.532Z,-0.40
2023-02-09T02:04:52.389Z,-0.40
2023-02-09T02:07:33.339Z,-0.50
2023-02-09T02:10:02.202Z,-0.40
2023-02-09T02:12:30.373Z,-0.40
2023-02-09T02:14:58.367Z,-0.50
2023-02-09T02:17:33.715Z,-0.50
2023-02-09T02:20:16.536Z,-0.50
2023-02-09T02:22:58.819Z,-0.50
2023-02-09T02:25:50.731Z,-0.50
2023-02-09T02:28:27.068Z,-0.50
2023-02-09T02:31:06.773Z,-0.50
2023-02-09T02:33:40.049Z,-0.50
2023-02-09T02:36:10.859Z,-0.60
2023-02-09T02:38:40.891Z,-0.60
2023-02-09T02:41:14.774Z,-0.60
2023-02-09T02:43:47.441Z,-0.60
2023-02-09T02:46:18.420Z,-0.60
2023-02-09T02:48:53.761Z,-0.60
2023-02-09T02:51:24.165Z,-0.60
2023-02-09T02:53:53.611Z,-0.60
2023-02-09T02:56:23.661Z,-0.60
2023-02-09T02:58:53.175Z,-0.60
2023-02-09T03:01:23.232Z,-0.60
2023-02-09T03:03:53.104Z,-0.70
2023-02-09T03:06:21.114Z,-0.70
2023-02-09T03:08:50.907Z,-0.70
2023-02-09T03:11:19.776Z,-0.70
2023-02-09T03:13:58.129Z,-0.70
2023-02-09T03:16:30.321Z,-0.70
2023-02-09T03:19:06.007Z,-0.70
2023-02-09T03:21:41.462Z,-0.70
2023-02-09T03:24:12.718Z,-0.70
2023-02-09T03:26:45.967Z,-0.70
2023-02-09T03:29:15.034Z,-0.70
2023-02-09T03:31:43.091Z,-0.70
2023-02-09T03:34:12.700Z,-0.70
2023-02-09T03:36:41.481Z,-0.70
2023-02-09T03:39:09.552Z,-0.70
2023-02-09T03:41:38.123Z,-0.80
2023-02-09T03:44:23.691Z,-0.70
2023-02-09T03:46:51.711Z,-0.70
2023-02-09T03:49:21.060Z,-0.70
2023-02-09T03:51:49.232Z,-0.70
2023-02-09T03:54:17.312Z,-0.70
2023-02-09T03:56:45.383Z,-0.70
2023-02-09T03:59:13.456Z,-0.70
2023-02-09T04:01:41.533Z,-0.70
2023-02-09T04:04:09.809Z,-0.70
2023-02-09T04:06:39.327Z,-0.60
2023-02-09T04:09:07.978Z,-0.60
2023-02-09T04:11:36.079Z,-0.60
2023-02-09T04:14:04.160Z,-0.60
2023-02-09T04:16:32.422Z,-0.60
2023-02-09T04:19:00.445Z,-0.60
2023-02-09T04:21:28.482Z,-0.60
2023-02-09T04:23:57.950Z,-0.60
2023-02-09T04:26:25.947Z,-0.60
2023-02-09T04:28:53.984Z,-0.50
2023-02-09T04:31:22.146Z,-0.50
2023-02-09T04:33:50.237Z,-0.50
2023-02-09T04:36:18.384Z,-0.50
2023-02-09T04:38:46.407Z,-0.50
2023-02-09T04:41:15.781Z,-0.50
2023-02-09T04:43:43.809Z,-0.50
2023-02-09T04:46:13.317Z,-0.50
2023-02-09T04:48:41.491Z,-0.50
2023-02-09T04:51:09.532Z,-0.40
2023-02-09T04:53:37.953Z,-0.40
2023-02-09T04:56:06.364Z,-0.40
2023-02-09T04:58:56.277Z,-0.40
2023-02-09T05:01:25.026Z,-0.40
2023-02-09T05:03:53.464Z,-0.40
2023-02-09T05:06:21.586Z,-0.40
2023-02-09T05:08:49.841Z,-0.40
2023-02-09T05:11:17.872Z,-0.40
2023-02-09T05:13:47.372Z,-0.40
2023-02-09T05:16:17.457Z,-0.40
2023-02-09T05:18:45.627Z,-0.40
2023-02-09T05:21:14.858Z,-0.30
2023-02-09T05:23:44.791Z,-0.40
2023-02-09T05:26:12.794Z,-0.30
2023-02-09T05:28:40.842Z,-0.30
2023-02-09T05:31:10.339Z,-0.40
2023-02-09T05:33:38.397Z,-0.30
2023-02-09T05:36:09.703Z,-0.30
2023-02-09T05:38:38.073Z,-0.30
2023-02-09T05:41:06.465Z,-0.30
2023-02-09T05:43:34.708Z,-0.40
2023-02-09T05:46:02.769Z,-0.40
2023-02-09T05:48:32.696Z,-0.40
2023-02-09T05:51:00.684Z,-0.40
2023-02-09T05:53:28.725Z,-0.40
2023-02-09T05:55:56.776Z,-0.40
2023-02-09T05:58:24.798Z,-0.40
2023-02-09T06:00:52.834Z,-0.40
2023-02-09T06:03:20.914Z,-0.40
2023-02-09T06:05:50.333Z,-0.40
2023-02-09T06:08:18.420Z,-0.40
2023-02-09T06:10:46.687Z,-0.40
2023-02-09T06:13:14.888Z,-0.50
2023-02-09T06:15:43.254Z,-0.40
2023-02-09T06:18:11.348Z,-0.40
2023-02-09T06:20:39.353Z,-0.40
2023-02-09T06:23:08.725Z,-0.50
2023-02-09T06:25:39.381Z,-0.50
2023-02-09T06:28:07.509Z,-0.50
2023-02-09T06:30:35.538Z,-0.50
2023-02-09T06:33:03.522Z,-0.50
2023-02-09T06:35:31.569Z,-0.50
2023-02-09T06:37:59.655Z,-0.50
2023-02-09T06:40:29.386Z,-0.50
2023-02-09T06:42:57.738Z,-0.50
2023-02-09T06:45:25.888Z,-0.40
2023-02-09T06:47:53.970Z,-0.40
2023-02-09T06:50:22.108Z,-0.50
2023-02-09T06:52:50.295Z,-0.40
2023-02-09T06:55:18.318Z,-0.40
2023-02-09T06:57:47.678Z,-0.40
2023-02-09T07:00:16.208Z,-0.40
2023-02-09T07:02:44.703Z,-0.40
2023-02-09T07:05:12.960Z,-0.40
2023-02-09T07:07:40.974Z,-0.40
2023-02-09T07:10:10.114Z,-0.40
2023-02-09T07:12:40.523Z,-0.40
2023-02-09T07:15:10.810Z,-0.40
2023-02-09T07:17:38.860Z,-0.40
2023-02-09T07:20:07.449Z,-0.40
2023-02-09T07:22:35.904Z,-0.40
2023-02-09T07:25:03.914Z,-0.30
2023-02-09T07:27:32.015Z,-0.30
2023-02-09T07:30:01.176Z,-0.30
2023-02-09T07:32:30.795Z,-0.30
2023-02-09T07:34:59.408Z,-0.30
2023-02-09T07:37:27.504Z,-0.30
2023-02-09T07:39:55.530Z,-0.30
2023-02-09T07:42:23.746Z,-0.20
2023-02-09T07:44:51.749Z,-0.20
2023-02-09T07:47:19.719Z,-0.20
2023-02-09T07:49:49.093Z,-0.20
2023-02-09T07:52:17.117Z,-0.10
2023-02-09T07:54:45.090Z,-0.10
2023-02-09T07:57:13.690Z,-0.10
2023-02-09T07:59:41.709Z,-0.10
2023-02-09T08:02:15.037Z,-0.10
2023-02-09T08:04:44.717Z,-0.10
2023-02-09T08:07:14.153Z,0.00
2023-02-09T08:09:45.019Z,0.00
2023-02-09T08:12:13.250Z,0.00
2023-02-09T08:14:43.039Z,0.00
2023-02-09T08:17:24.100Z,0.10
2023-02-09T08:19:53.873Z,0.10
2023-02-09T08:22:24.506Z,0.10
2023-02-09T08:24:52.940Z,0.10
2023-02-09T08:27:20.933Z,0.10
2023-02-09T08:29:49.180Z,0.20
2023-02-09T08:32:17.288Z,0.20
2023-02-09T08:34:45.425Z,0.30
2023-02-09T08:37:13.411Z,0.30
2023-02-09T08:39:42.851Z,0.30
2023-02-09T08:42:10.957Z,0.40
2023-02-09T08:44:39.131Z,0.40
2023-02-09T08:47:07.242Z,0.40
2023-02-09T08:49:35.285Z,0.50
2023-02-09T08:52:03.262Z,0.50
2023-02-09T08:54:31.237Z,0.40
2023-02-09T08:57:00.659Z,0.50
2023-02-09T08:59:28.817Z,0.60
2023-02-09T09:01:56.978Z,0.60
2023-02-09T09:04:25.000Z,0.60
2023-02-09T09:06:53.071Z,0.70
2023-02-09T09:09:21.094Z,0.70
2023-02-09T09:11:49.179Z,0.70
2023-02-09T09:14:18.549Z,0.70
2023-02-09T09:16:46.632Z,0.80
2023-02-09T09:19:14.923Z,0.80
2023-02-09T09:21:43.017Z,0.90
2023-02-09T09:24:11.055Z,0.90
2023-02-09T09:26:39.036Z,1.00
2023-02-09T09:29:07.045Z,1.00
2023-02-09T09:31:37.987Z,1.10
2023-02-09T09:34:24.431Z,1.10
2023-02-09T09:36:52.446Z,1.20
2023-02-09T09:39:20.485Z,1.20
2023-02-09T09:41:50.049Z,1.30
2023-02-09T09:44:21.444Z,1.30
2023-02-09T09:46:52.951Z,1.30
2023-02-09T09:49:23.687Z,1.40
2023-02-09T09:51:54.867Z,1.40
2023-02-09T09:54:24.420Z,1.40
2023-02-09T09:56:53.733Z,1.50
2023-02-09T09:59:22.909Z,1.50
2023-02-09T10:01:53.061Z,1.60
2023-02-09T10:04:21.396Z,1.60
2023-02-09T10:06:53.016Z,1.60
2023-02-09T10:09:24.527Z,1.70
2023-02-09T10:11:54.723Z,1.70
2023-02-09T10:14:23.792Z,1.80
2023-02-09T10:16:53.297Z,1.80
2023-02-09T10:19:22.790Z,1.80
2023-02-09T10:21:50.775Z,1.80
2023-02-09T10:24:22.286Z,1.80
2023-02-09T10:27:02.833Z,1.90
2023-02-09T10:29:30.881Z,1.90
2023-02-09T10:32:04.999Z,1.90
2023-02-09T10:34:34.399Z,2.00
2023-02-09T10:37:14.178Z,2.00
2023-02-09T10:39:42.260Z,2.10
2023-02-09T10:42:18.084Z,2.10
2023-02-09T10:44:48.747Z,2.20
2023-02-09T10:47:27.693Z,2.20
2023-02-09T10:49:57.494Z,2.20
2023-02-09T10:52:26.329Z,2.30
2023-02-09T10:54:56.498Z,2.30
2023-02-09T10:57:26.696Z,2.30
2023-02-09T10:59:56.394Z,2.30
2023-02-09T11:02:31.705Z,2.40
2023-02-09T11:04:59.755Z,2.40
2023-02-09T11:07:31.936Z,2.50
2023-02-09T11:10:01.175Z,2.50
2023-02-09T11:12:29.269Z,2.50
2023-02-09T11:14:57.344Z,2.60
2023-02-09T11:17:26.442Z,2.60
2023-02-09T11:20:04.797Z,2.70
2023-02-09T11:22:43.677Z,2.80
2023-02-09T11:25:18.532Z,2.80
2023-02-09T11:28:16.814Z,2.90
2023-02-09T11:30:56.789Z,3.00
2023-02-09T11:33:28.273Z,3.00
2023-02-09T11:36:00.859Z,3.00
2023-02-09T11:38:34.521Z,3.00
2023-02-09T11:41:23.992Z,3.10
2023-02-09T11:43:53.741Z,3.10
2023-02-09T11:46:23.943Z,3.10
2023-02-09T11:48:55.568Z,3.20
2023-02-09T11:51:26.724Z,3.20
2023-02-09T11:53:57.631Z,3.20
2023-02-09T11:56:26.438Z,3.20
2023-02-09T11:58:56.019Z,3.20
2023-02-09T12:01:28.786Z,3.20
2023-02-09T12:04:00.480Z,3.20
2023-02-09T12:06:33.138Z,3.20
2023-02-09T12:09:04.573Z,3.20
2023-02-09T12:11:37.949Z,3.20
2023-02-09T12:14:12.811Z,3.20
2023-02-09T12:16:42.285Z,3.30
2023-02-09T12:19:23.383Z,3.30
2023-02-09T12:21:52.779Z,3.20
2023-02-09T12:24:34.450Z,3.30
2023-02-09T12:27:02.589Z,3.30
2023-02-09T12:29:38.207Z,3.20
2023-02-09T12:32:31.291Z,3.30
2023-02-09T12:35:19.430Z,3.30
2023-02-09T12:38:02.270Z,3.30
2023-02-09T12:40:38.448Z,3.30
2023-02-09T12:43:13.801Z,3.30
2023-02-09T12:45:42.652Z,3.40
2023-02-09T12:48:15.302Z,3.40
2023-02-09T12:50:48.059Z,3.50
2023-02-09T12:53:49.304Z,3.50
2023-02-09T12:56:32.408Z,3.50
2023-02-09T12:59:15.286Z,3.60
2023-02-09T13:02:01.792Z,3.60
2023-02-09T13:04:31.766Z,3.60
2023-02-09T13:07:00.136Z,3.70
2023-02-09T13:09:30.179Z,3.70
2023-02-09T13:12:03.435Z,3.80
2023-02-09T13:14:31.747Z,3.80
2023-02-09T13:17:13.793Z,3.80
2023-02-09T13:19:56.665Z,3.80
2023-02-09T13:22:31.052Z,3.90
2023-02-09T13:25:00.894Z,4.00
2023-02-09T13:27:31.378Z,4.10
2023-02-09T13:30:00.055Z,4.10
2023-02-09T13:32:47.583Z,4.10
2023-02-09T13:35:17.805Z,4.20
2023-02-09T13:37:47.581Z,4.30
2023-02-09T13:40:16.699Z,4.30
2023-02-09T13:42:59.727Z,4.30
2023-02-09T13:45:28.271Z,4.20
2023-02-09T13:47:59.183Z,4.20
2023-02-09T13:50:29.270Z,4.10
2023-02-09T13:53:08.420Z,4.10
2023-02-09T13:55:39.822Z,4.10
2023-02-09T13:58:15.508Z,4.00
2023-02-09T14:00:45.010Z,4.00
2023-02-09T14:03:16.357Z,4.00
2023-02-09T14:05:46.446Z,6.60
2023-02-09T14:08:15.552Z,3.90
2023-02-09T14:10:45.610Z,3.90
2023-02-09T14:13:19.548Z,3.90
2023-02-09T14:16:07.779Z,3.90
2023-02-09T14:18:50.317Z,3.90
2023-02-09T14:21:20.980Z,3.90
2023-02-09T14:23:49.670Z,3.80
2023-02-09T14:26:27.782Z,3.80
2023-02-09T14:29:05.874Z,3.80
2023-02-09T14:31:35.402Z,3.80
2023-02-09T14:34:03.529Z,3.80
2023-02-09T14:36:33.472Z,3.80
2023-02-09T14:39:16.544Z,3.80
2023-02-09T14:41:55.726Z,3.80
2023-02-09T14:44:25.464Z,3.80
2023-02-09T14:46:54.815Z,3.80
2023-02-09T14:49:23.403Z,3.80
2023-02-09T14:51:52.802Z,3.80
2023-02-09T14:54:25.399Z,3.80
2023-02-09T14:56:54.347Z,3.80
2023-02-09T14:59:22.730Z,3.80
2023-02-09T15:01:53.104Z,3.80
2023-02-09T15:04:21.639Z,3.80
2023-02-09T15:06:53.870Z,3.80
2023-02-09T15:09:23.344Z,3.80
2023-02-09T15:12:06.773Z,3.80
2023-02-09T15:14:43.577Z,3.80
2023-02-09T15:17:17.529Z,3.80
2023-02-09T15:19:45.630Z,3.80
2023-02-09T15:22:15.127Z,3.80
2023-02-09T15:24:43.429Z,3.80
2023-02-09T15:27:24.181Z,3.80
2023-02-09T15:29:52.240Z,3.80
2023-02-09T15:32:22.383Z,3.80
2023-02-09T15:34:51.827Z,3.80
2023-02-09T15:37:22.184Z,3.80
2023-02-09T15:39:50.600Z,3.80
2023-02-09T15:42:36.823Z,3.80
2023-02-09T15:45:35.932Z,3.80
2023-02-09T15:48:05.822Z,3.80
2023-02-09T15:50:34.918Z,3.80
2023-02-09T15:53:03.762Z,3.80
2023-02-09T15:55:32.186Z,3.80
2023-02-09T15:58:00.488Z,3.80
2023-02-09T16:00:29.335Z,3.80
2023-02-09T16:02:59.419Z,3.80
2023-02-09T16:05:30.056Z,3.80
2023-02-09T16:07:59.628Z,3.80
2023-02-09T16:10:29.714Z,3.80
2023-02-09T16:12:57.781Z,3.70
2023-02-09T16:15:27.339Z,3.70
2023-02-09T16:17:55.830Z,3.70
2023-02-09T16:20:25.983Z,3.70
2023-02-09T16:22:56.271Z,3.70
2023-02-09T16:25:25.563Z,3.70
2023-02-09T16:27:54.195Z,3.70
2023-02-09T16:30:23.965Z,3.70
2023-02-09T16:32:52.025Z,3.70
2023-02-09T16:35:20.912Z,3.70
2023-02-09T16:37:49.840Z,3.70
2023-02-09T16:40:23.321Z,3.70
2023-02-09T16:42:51.607Z,3.70
2023-02-09T16:45:19.914Z,3.70
2023-02-09T16:47:50.392Z,3.70
2023-02-09T16:50:23.719Z,3.70
2023-02-09T16:52:52.640Z,3.70
2023-02-09T16:55:26.620Z,3.60
2023-02-09T16:57:56.106Z,3.60
2023-02-09T17:00:25.332Z,3.70
2023-02-09T17:02:54.878Z,3.60
2023-02-09T17:05:25.506Z,3.60
2023-02-09T17:07:55.473Z,3.60
2023-02-09T17:10:26.218Z,3.60
2023-02-09T17:12:54.422Z,3.60
2023-02-09T17:15:30.017Z,3.60
2023-02-09T17:18:02.104Z,3.60
2023-02-09T17:20:32.853Z,3.60
2023-02-09T17:23:00.967Z,3.60
2023-02-09T17:25:30.415Z,3.60
2023-02-09T17:27:58.791Z,3.60
2023-02-09T17:30:26.806Z,3.60
2023-02-09T17:32:59.454Z,3.70
2023-02-09T17:35:53.040Z,3.70
2023-02-09T17:38:21.086Z,3.60
2023-02-09T17:40:50.664Z,3.70
2023-02-09T17:43:18.794Z,3.70
2023-02-09T17:45:49.677Z,3.70
2023-02-09T17:48:18.345Z,3.60
2023-02-09T17:50:48.427Z,3.60
2023-02-09T17:53:17.526Z,3.60
2023-02-09T17:55:46.169Z,3.60
2023-02-09T17:58:16.072Z,3.60
2023-02-09T18:00:44.576Z,3.60
2023-02-09T18:03:14.826Z,3.60
2023-02-09T18:05:42.979Z,3.60
2023-02-09T18:08:11.236Z,3.70
2023-02-09T18:10:39.405Z,3.60
2023-02-09T18:13:07.432Z,3.70
2023-02-09T18:15:37.800Z,3.70
2023-02-09T18:18:05.884Z,3.70
2023-02-09T18:20:34.477Z,3.60
2023-02-09T18:23:03.195Z,3.60
2023-02-09T18:25:32.951Z,3.60
2023-02-09T18:28:01.211Z,3.60
2023-02-09T18:30:30.484Z,3.60
2023-02-09T18:33:00.151Z,2.00
2023-02-09T18:35:31.647Z,3.60
2023-02-09T18:38:00.026Z,3.60
2023-02-09T18:40:28.431Z,3.60
2023-02-09T18:42:56.464Z,3.60
2023-02-09T18:45:24.614Z,3.60
2023-02-09T18:47:52.882Z,3.60
2023-02-09T18:50:23.283Z,3.60
2023-02-09T18:52:52.251Z,3.60
2023-02-09T18:55:20.966Z,3.60
2023-02-09T18:57:49.130Z,3.60
2023-02-09T19:00:19.535Z,3.60
2023-02-09T19:02:47.685Z,3.60
2023-02-09T19:05:16.582Z,3.60
2023-02-09T19:07:47.114Z,3.60
2023-02-09T19:10:17.157Z,3.60
2023-02-09T19:12:45.525Z,3.60
2023-02-09T19:15:13.962Z,3.60
2023-02-09T19:17:42.478Z,3.60
2023-02-09T19:20:13.326Z,3.60
2023-02-09T19:22:41.503Z,3.60
2023-02-09T19:25:10.987Z,3.60
2023-02-09T19:27:39.249Z,3.60
2023-02-09T19:30:07.736Z,3.60
2023-02-09T19:32:35.832Z,3.60
2023-02-09T19:35:04.117Z,3.60
2023-02-09T19:37:32.319Z,3.60
2023-02-09T19:40:10.454Z,3.60
2023-02-09T19:42:40.160Z,3.60
2023-02-09T19:45:08.708Z,3.60
2023-02-09T19:47:37.881Z,3.60
2023-02-09T19:50:06.203Z,3.60
2023-02-09T19:52:38.323Z,3.60
2023-02-09T19:55:06.737Z,3.70
2023-02-09T19:57:34.769Z,3.60
2023-02-09T20:00:06.142Z,3.60
2023-02-09T20:02:34.310Z,3.60
2023-02-09T20:05:02.376Z,3.60
2023-02-09T20:07:30.786Z,3.60
2023-02-09T20:09:58.845Z,3.60
2023-02-09T20:12:27.161Z,3.60
2023-02-09T20:14:55.295Z,3.60
2023-02-09T20:17:26.706Z,3.60
2023-02-09T20:19:54.771Z,3.70
2023-02-09T20:22:23.065Z,3.70
2023-02-09T20:24:51.152Z,3.70
2023-02-09T20:27:19.716Z,3.70
2023-02-09T20:29:47.794Z,3.70
2023-02-09T20:32:15.828Z,3.70
2023-02-09T20:34:45.276Z,3.70
2023-02-09T20:37:13.362Z,3.60
2023-02-09T20:39:41.419Z,3.60
2023-02-09T20:42:26.779Z,3.60
2023-02-09T20:45:12.323Z,3.60
2023-02-09T20:47:40.422Z,3.60
2023-02-09T20:50:10.285Z,3.60
2023-02-09T20:52:39.501Z,3.60
2023-02-09T20:55:07.932Z,3.60
2023-02-09T20:57:36.066Z,3.60
2023-02-09T21:00:08.113Z,3.60
2023-02-09T21:02:36.356Z,3.50
2023-02-09T21:05:04.948Z,3.50
2023-02-09T21:07:35.051Z,3.60
2023-02-09T21:10:03.101Z,3.50
2023-02-09T21:12:31.518Z,3.50
2023-02-09T21:14:59.938Z,3.50
2023-02-09T21:17:27.922Z,3.50
2023-02-09T21:19:56.022Z,3.50
2023-02-09T21:22:24.014Z,3.60
2023-02-09T21:24:53.431Z,3.60
2023-02-09T21:27:21.653Z,3.60
2023-02-09T21:29:49.689Z,3.60
2023-02-09T21:32:18.140Z,3.50
2023-02-09T21:34:46.125Z,3.50
2023-02-09T21:37:14.703Z,3.50
2023-02-09T21:39:42.772Z,3.50
2023-02-09T21:42:36.938Z,3.60
2023-02-09T21:47:47.327Z,3.60
2023-02-09T21:50:15.436Z,3.60
2023-02-09T21:52:43.546Z,3.60
2023-02-09T21:55:11.552Z,3.60
2023-02-09T21:57:41.135Z,3.60
2023-02-09T22:00:10.117Z,3.60
2023-02-09T22:02:38.474Z,3.60
2023-02-09T22:05:07.422Z,3.60
2023-02-09T22:07:35.493Z,3.70
2023-02-09T22:10:03.581Z,3.70
2023-02-09T22:12:34.092Z,3.60
2023-02-09T22:15:03.482Z,3.60
2023-02-09T22:17:31.616Z,3.70
2023-02-09T22:19:59.605Z,3.60
2023-02-09T22:22:27.710Z,3.70
2023-02-09T22:24:57.209Z,3.70
2023-02-09T22:27:25.389Z,3.60
2023-02-09T22:29:53.476Z,3.60
2023-02-09T22:32:22.806Z,3.60
2023-02-09T22:34:50.851Z,3.60
2023-02-09T22:37:18.932Z,3.60
2023-02-09T22:39:48.229Z,3.60
2023-02-09T22:42:16.342Z,3.50
2023-02-09T22:44:46.014Z,3.50
2023-02-09T22:47:14.028Z,3.50
2023-02-09T22:49:46.638Z,3.50
2023-02-09T22:52:17.497Z,3.50
2023-02-09T22:54:45.834Z,3.40
2023-02-09T22:57:13.931Z,3.40
2023-02-09T22:59:42.277Z,3.40
2023-02-09T23:02:12.451Z,3.40
2023-02-09T23:04:40.775Z,3.40
2023-02-09T23:07:10.275Z,3.40
2023-02-09T23:09:38.419Z,3.40
2023-02-09T23:12:06.732Z,3.30
2023-02-09T23:14:34.801Z,3.30
2023-02-09T23:17:02.804Z,3.30
2023-02-09T23:19:30.850Z,3.30
2023-02-09T23:21:58.852Z,3.30
2023-02-09T23:24:28.304Z,3.30
2023-02-09T23:26:57.700Z,3.30
2023-02-09T23:29:25.915Z,3.20
2023-02-09T23:31:54.026Z,3.30
2023-02-09T23:34:23.284Z,3.20
2023-02-09T23:36:51.550Z,3.20
2023-02-09T23:39:21.093Z,3.20
2023-02-09T23:41:50.671Z,3.20
2023-02-09T23:44:19.467Z,3.20
2023-02-09T23:46:47.675Z,3.10
2023-02-09T23:49:15.960Z,3.10
2023-02-09T23:51:45.508Z,3.10
2023-02-09T23:54:14.112Z,3.10
2023-02-09T23:56:42.211Z,3.00
2023-02-09T23:59:14.091Z,3.00
